Time;durP1;ratioP1;P1;durP2;ratioP2;P2;SDS_P1;SDS_P2;PMS_P1;PMS_P2;Temp;Humidity;BMP_temperature;BMP_pressure;BME280_temperature;BME280_humidity;BME280_pressure;Samples;Min_cycle;Max_cycle;Signal;HPM_P1;HPM_P2
2021/11/19 00:03:13;;;;;;;;;;;;;;;4.31;100.00;95607.91;10400696;28;19924;-78
2021/11/19 00:08:15;;;;;;;;;;;;;;;4.55;100.00;95615.16;10400983;28;20387;-74
2021/11/19 00:13:15;;;;;;;;;;;;;;;4.56;100.00;95622.13;10417878;28;19921;-76
2021/11/19 00:18:16;;;;;;;;;;;;;;;4.72;100.00;95615.47;10400124;28;19920;-78
2021/11/19 00:23:17;;;;;;;;;;;;;;;4.50;100.00;95617.63;10400195;28;19917;-77
2021/11/19 00:28:18;;;;;;;;;;;;;;;4.35;100.00;95623.22;10401239;28;19913;-74
2021/11/19 00:33:18;;;;;;;;;;;;;;;4.34;100.00;95618.97;10401852;28;19962;-75
2021/11/19 00:38:20;;;;;;;;;;;;;;;4.24;100.00;95629.22;10398115;28;20303;-77
2021/11/19 00:43:21;;;;;;;;;;;;;;;4.24;100.00;95629.22;10396807;28;20000;-74
2021/11/19 00:48:23;;;;;;;;;;;;;;;4.38;100.00;95632.63;10401099;28;19917;-78
2021/11/19 00:53:24;;;;;;;;;;;;;;;4.59;100.00;95632.34;10401132;28;19921;-73
2021/11/19 00:58:24;;;;;;;;;;;;;;;4.70;100.00;95627.34;10416908;28;19920;-73
2021/11/19 01:03:26;;;;;;;;;;;;;;;4.86;100.00;95629.50;10416326;28;19924;-74
2021/11/19 01:08:27;;;;;;;;;;;;;;;5.10;100.00;95627.91;10416101;28;19921;-73
2021/11/19 01:13:29;;;;;;;;;;;;;;;5.22;100.00;95628.03;10417191;28;19921;-77
2021/11/19 01:18:49;;;;;;;;;;;;;;;5.14;100.00;95613.13;10416336;28;19932;-73
2021/11/19 01:23:50;;;;;;;;;;;;;;;5.14;100.00;95623.78;10399157;28;20008;-73
2021/11/19 01:28:52;;;;;;;;;;;;;;;5.31;100.00;95615.25;10416328;28;19919;-74
2021/11/19 01:33:52;;;;;;;;;;;;;;;5.31;100.00;95617.91;10420789;28;19979;-77
2021/11/19 01:38:53;;;;;;;;;;;;;;;5.28;100.00;95610.34;10423353;28;20353;-72
2021/11/19 01:43:55;;;;;;;;;;;;;;;5.06;100.00;95607.25;10405883;28;19921;-78
2021/11/19 01:48:57;;;;;;;;;;;;;;;5.18;100.00;95613.50;10406540;28;19920;-75
2021/11/19 01:54:03;;;;;;;;;;;;;;;5.33;100.00;95604.38;10365512;28;19921;-74
2021/11/19 01:59:12;;;;;;;;;;;;;;;5.37;100.00;95601.06;10398941;28;19913;-78
2021/11/19 02:04:15;;;;;;;;;;;;;;;5.45;100.00;95599.94;10422282;28;20311;-75
2021/11/19 02:09:25;;;;;;;;;;;;;;;5.16;100.00;95607.56;10406261;28;19932;-74
2021/11/19 02:14:25;;;;;;;;;;;;;;;5.07;100.00;95592.91;10405318;28;19914;-74
2021/11/19 02:19:29;;;;;;;;;;;;;;;4.87;100.00;95585.88;10405358;28;19913;-77
2021/11/19 02:24:48;;;;;;;;;;;;;;;4.97;100.00;95591.53;10405299;28;19925;-74
2021/11/19 02:29:52;;;;;;;;;;;;;;;5.24;100.00;95588.66;10406335;28;19917;-77
2021/11/19 02:34:52;;;;;;;;;;;;;;;4.95;100.00;95579.44;10421245;28;20007;-79
2021/11/19 02:40:00;;;;;;;;;;;;;;;4.80;100.00;95579.78;10421127;28;19917;-79
2021/11/19 02:45:02;;;;;;;;;;;;;;;4.86;100.00;95584.25;10419768;28;20375;-73
2021/11/19 02:50:03;;;;;;;;;;;;;;;5.06;100.00;95589.41;10420425;28;19913;-74
2021/11/19 02:55:09;;;;;;;;;;;;;;;4.93;100.00;95589.53;10420606;28;20318;-76
2021/11/19 03:00:12;;;;;;;;;;;;;;;4.95;100.00;95590.94;10420272;28;19924;-77
2021/11/19 03:05:14;;;;;;;;;;;;;;;4.99;100.00;95595.84;10404583;28;20020;-73
2021/11/19 03:10:20;;;;;;;;;;;;;;;4.60;100.00;95580.72;10419483;28;19925;-73
2021/11/19 03:15:26;;;;;;;;;;;;;;;4.48;100.00;95574.47;10419618;28;19913;-76
2021/11/19 03:20:27;;;;;;;;;;;;;;;4.37;100.00;95569.81;10419380;28;19917;-74
2021/11/19 03:25:29;;;;;;;;;;;;;;;4.51;100.00;95571.38;10419258;28;19932;-76
2021/11/19 03:30:30;;;;;;;;;;;;;;;4.66;100.00;95575.56;10403708;28;19925;-74
2021/11/19 03:35:31;;;;;;;;;;;;;;;4.81;100.00;95578.72;10419464;28;19940;-74
2021/11/19 03:40:35;;;;;;;;;;;;;;;4.77;100.00;95580.19;10418653;28;19924;-75
2021/11/19 03:45:39;;;;;;;;;;;;;;;4.47;100.00;95588.78;10418643;28;19925;-77
2021/11/19 03:50:48;;;;;;;;;;;;;;;4.33;100.00;95576.59;10418426;28;19983;-74
2021/11/19 03:55:49;;;;;;;;;;;;;;;4.29;100.00;95578.84;10503962;23;19932;-73
2021/11/19 04:00:54;;;;;;;;;;;;;;;4.29;100.00;95565.53;10401313;28;19974;-77
2021/11/19 04:05:55;;;;;;;;;;;;;;;4.32;100.00;95570.44;10417552;28;19917;-75
2021/11/19 04:10:55;;;;;;;;;;;;;;;4.61;100.00;95565.56;10417381;28;19913;-80
2021/11/19 04:15:57;;;;;;;;;;;;;;;4.55;100.00;95561.09;10416941;28;20257;-75
2021/11/19 04:20:57;;;;;;;;;;;;;;;4.65;100.00;95558.78;10417165;28;19970;-74
2021/11/19 04:25:59;;;;;;;;;;;;;;;4.81;100.00;95561.94;10384567;28;19974;-72
2021/11/19 04:31:00;;;;;;;;;;;;;;;4.95;100.00;95558.97;10416920;28;20415;-77
2021/11/19 04:36:00;;;;;;;;;;;;;;;5.23;100.00;95565.72;10417090;28;19971;-72
2021/11/19 04:41:01;;;;;;;;;;;;;;;5.13;100.00;95560.03;10417541;28;19920;-70
2021/11/19 04:46:03;;;;;;;;;;;;;;;5.23;100.00;95564.88;10418290;28;19918;-74
2021/11/19 04:51:09;;;;;;;;;;;;;;;4.91;100.00;95564.94;10418752;28;19920;-76
2021/11/19 04:56:10;;;;;;;;;;;;;;;5.21;100.00;95558.97;10417324;28;19925;-79
2021/11/19 05:01:12;;;;;;;;;;;;;;;5.27;100.00;95558.91;10400088;28;19913;-78
2021/11/19 05:06:13;;;;;;;;;;;;;;;5.29;100.00;95548.03;10416675;28;20004;-82
2021/11/19 05:11:16;;;;;;;;;;;;;;;5.34;100.00;95566.03;10406993;28;19917;-75
2021/11/19 05:16:17;;;;;;;;;;;;;;;5.19;100.00;95561.84;10423612;28;19925;-75
2021/11/19 05:21:19;;;;;;;;;;;;;;;5.29;100.00;95575.50;10423782;28;19921;-74
2021/11/19 05:26:20;;;;;;;;;;;;;;;5.31;100.00;95570.75;10423205;28;19913;-78
2021/11/19 05:31:20;;;;;;;;;;;;;;;5.04;100.00;95566.69;10422528;28;19959;-77
2021/11/19 05:36:21;;;;;;;;;;;;;;;4.92;100.00;95580.69;10406721;28;20015;-78
2021/11/19 05:41:22;;;;;;;;;;;;;;;4.76;100.00;95571.41;10421866;28;19925;-75
2021/11/19 05:46:24;;;;;;;;;;;;;;;4.53;100.00;95582.59;10404704;28;20405;-76
2021/11/19 05:51:25;;;;;;;;;;;;;;;4.43;100.00;95587.59;10377410;28;19957;-78
2021/11/19 05:56:26;;;;;;;;;;;;;;;4.58;100.00;95585.44;10379655;28;19968;-79
2021/11/19 06:01:26;;;;;;;;;;;;;;;4.54;100.00;95586.09;10378674;28;20009;-77
2021/11/19 06:06:27;;;;;;;;;;;;;;;4.52;100.00;95590.78;10360859;28;20470;-74
2021/11/19 06:11:29;;;;;;;;;;;;;;;4.70;100.00;95592.75;10377869;28;19917;-76
2021/11/19 06:16:33;;;;;;;;;;;;;;;4.79;100.00;95600.25;10363825;28;20020;-75
2021/11/19 06:21:36;;;;;;;;;;;;;;;4.90;100.00;95598.75;10379476;28;20252;-75
2021/11/19 06:26:38;;;;;;;;;;;;;;;5.00;100.00;95602.81;10365019;28;20063;-75
2021/11/19 06:31:42;;;;;;;;;;;;;;;4.88;100.00;95600.81;10380084;28;19983;-74
2021/11/19 06:36:44;;;;;;;;;;;;;;;4.91;100.00;95611.06;10379657;28;19936;-78
2021/11/19 06:41:45;;;;;;;;;;;;;;;5.26;100.00;95604.41;10370026;28;20356;-78
2021/11/19 06:46:45;;;;;;;;;;;;;;;5.29;100.00;95601.34;10362269;28;20020;-75
2021/11/19 06:51:46;;;;;;;;;;;;;;;5.04;100.00;95606.66;10362382;28;19953;-75
2021/11/19 06:56:46;;;;;;;;;;;;;;;5.02;100.00;95617.50;10362078;28;19929;-78
2021/11/19 07:01:46;;;;;;;;;;;;;;;5.38;100.00;95607.19;10363188;28;19921;-78
2021/11/19 07:06:47;;;;;;;;;;;;;;;5.57;100.00;95608.06;10361523;28;19924;-78
2021/11/19 07:11:47;;;;;;;;;;;;;;;5.59;100.00;95601.44;10378700;28;19921;-74
2021/11/19 07:16:47;;;;;;;;;;;;;;;5.92;100.00;95599.50;10363243;28;19921;-76
2021/11/19 07:21:48;;;;;;;;;;;;;;;6.26;100.00;95603.41;10378221;28;19921;-76
2021/11/19 07:26:48;;;;;;;;;;;;;;;6.56;98.56;95604.47;10361962;28;19913;-79
2021/11/19 07:31:48;;;;;;;;;;;;;;;5.99;99.94;95601.06;10361779;28;20307;-74
2021/11/19 07:36:48;;;;;;;;;;;;;;;6.13;100.00;95611.59;10377364;28;19914;-79
2021/11/19 07:41:49;;;;;;;;;;;;;;;5.92;100.00;95613.63;10360505;28;20096;-78
2021/11/19 07:46:50;;;;;;;;;;;;;;;6.22;100.00;95615.59;10360573;28;19913;-79
2021/11/19 07:51:51;;;;;;;;;;;;;;;6.57;100.00;95622.97;10376684;28;20262;-76
2021/11/19 07:56:51;;;;;;;;;;;;;;;6.71;100.00;95620.13;10376618;28;19929;-81
2021/11/19 08:01:53;;;;;;;;;;;;;;;6.67;100.00;95609.88;10359970;28;20291;-75
2021/11/19 08:06:53;;;;;;;;;;;;;;;6.47;100.00;95622.69;10359350;28;20348;-75
2021/11/19 08:11:54;;;;;;;;;;;;;;;6.43;100.00;95627.69;10360847;28;19964;-79
2021/11/19 08:16:56;;;;;;;;;;;;;;;6.76;100.00;95622.94;10360840;28;19997;-75
2021/11/19 08:21:58;;;;;;;;;;;;;;;7.11;99.57;95623.03;10375748;28;19982;-79
2021/11/19 08:27:10;;;;;;;;;;;;;;;6.92;100.00;95626.81;10359307;28;19920;-79
2021/11/19 08:32:10;;;;;;;;;;;;;;;7.31;100.00;95628.06;10360129;28;19958;-78
2021/11/19 08:37:11;;;;;;;;;;;;;;;7.47;98.02;95621.22;10360608;28;19917;-78
2021/11/19 08:42:11;;;;;;;;;;;;;;;6.77;100.00;95629.91;10360712;28;19921;-79
2021/11/19 08:47:13;;;;;;;;;;;;;;;6.32;100.00;95621.22;10368322;28;20391;-74
2021/11/19 08:52:15;;;;;;;;;;;;;;;6.47;100.00;95618.19;10368430;28;19914;-81
2021/11/19 08:57:17;;;;;;;;;;;;;;;6.83;100.00;95611.09;10383204;28;19988;-78
2021/11/19 09:02:18;;;;;;;;;;;;;;;6.81;100.00;95613.19;10382640;28;19968;-74
2021/11/19 09:07:19;;;;;;;;;;;;;;;7.06;100.00;95616.72;10383365;28;19933;-77
2021/11/19 09:12:19;;;;;;;;;;;;;;;6.74;100.00;95596.44;10366625;28;19917;-82
2021/11/19 09:17:22;;;;;;;;;;;;;;;6.22;100.00;95593.44;10382838;28;19950;-80
2021/11/19 09:22:38;;;;;;;;;;;;;;;6.08;100.00;95577.56;10381991;28;20083;-81
2021/11/19 09:27:40;;;;;;;;;;;;;;;6.58;100.00;95578.38;10382932;28;20379;-77
2021/11/19 09:32:44;;;;;;;;;;;;;;;7.78;99.10;95564.91;10381755;28;20418;-79
2021/11/19 09:37:48;;;;;;;;;;;;;;;7.91;94.55;95556.66;10366884;28;19972;-76
2021/11/19 09:43:01;;;;;;;;;;;;;;;7.63;90.03;95549.34;10381202;28;19958;-80
2021/11/19 09:48:12;;;;;;;;;;;;;;;8.02;86.61;95541.59;10381262;28;20306;-76
2021/11/19 09:53:31;;;;;;;;;;;;;;;7.28;92.97;95553.66;10364878;28;19922;-75
2021/11/19 09:58:41;;;;;;;;;;;;;;;7.89;90.85;95547.22;10381379;28;20340;-75
2021/11/19 10:03:41;;;;;;;;;;;;;;;7.75;86.53;95528.75;10380613;28;19941;-75
2021/11/19 10:08:41;;;;;;;;;;;;;;;6.87;96.46;95520.63;10380682;28;19921;-77
2021/11/19 10:13:48;;;;;;;;;;;;;;;7.49;91.31;95512.16;10380412;28;19918;-76
2021/11/19 10:18:51;;;;;;;;;;;;;;;7.77;85.10;95515.13;10380962;28;19917;-75
2021/11/19 10:23:53;;;;;;;;;;;;;;;10.27;70.02;95494.44;10379940;28;20288;-81
2021/11/19 10:28:55;;;;;;;;;;;;;;;11.69;59.43;95473.50;10365536;28;20003;-73
2021/11/19 10:34:07;;;;;;;;;;;;;;;15.53;47.61;95458.59;10364701;28;19917;-77
2021/11/19 10:39:07;;;;;;;;;;;;;;;16.22;41.48;95433.16;10362864;28;20537;-78
2021/11/19 10:44:08;;;;;;;;;;;;;;;18.91;37.65;95427.19;10379100;28;19921;-77
2021/11/19 10:49:08;;;;;;;;;;;;;;;16.66;40.10;95436.59;10364191;28;20467;-78
2021/11/19 10:54:26;;;;;;;;;;;;;;;14.88;43.49;95448.06;10378704;28;19995;-80
2021/11/19 10:59:36;;;;;;;;;;;;;;;13.28;46.41;95446.06;10378287;28;19919;-78
2021/11/19 11:04:40;;;;;;;;;;;;;;;12.29;48.80;95457.06;10378044;28;19924;-74
2021/11/19 11:09:44;;;;;;;;;;;;;;;11.82;51.05;95453.38;10363026;28;19964;-75
2021/11/19 11:14:47;;;;;;;;;;;;;;;10.92;53.29;95443.44;10363020;28;19913;-79
2021/11/19 11:19:48;;;;;;;;;;;;;;;10.12;55.76;95440.50;10378035;28;20404;-78
2021/11/19 11:24:51;;;;;;;;;;;;;;;10.03;58.50;95432.09;10369243;28;20048;-78
2021/11/19 11:29:57;;;;;;;;;;;;;;;10.86;55.66;95420.28;10377566;28;19917;-80
2021/11/19 11:35:01;;;;;;;;;;;;;;;10.37;55.12;95424.69;10377065;28;19964;-74
2021/11/19 11:40:05;;;;;;;;;;;;;;;9.66;58.69;95416.66;10378114;28;19992;-78
2021/11/19 11:45:20;;;;;;;;;;;;;;;9.22;60.93;95414.75;10360450;28;19925;-78
2021/11/19 11:50:39;;;;;;;;;;;;;;;8.57;69.23;95419.72;10376757;28;19914;-82
2021/11/19 11:56:02;;;;;;;;;;;;;;;8.30;75.42;95412.28;10378162;28;19926;-78
2021/11/19 12:01:23;;;;;;;;;;;;;;;8.30;74.39;95417.63;10376539;28;19917;-75
2021/11/19 12:06:24;;;;;;;;;;;;;;;8.14;75.00;95411.19;10376053;28;19967;-76
2021/11/19 12:11:27;;;;;;;;;;;;;;;7.78;77.87;95407.06;10376485;28;19971;-73
2021/11/19 12:16:30;;;;;;;;;;;;;;;7.76;81.22;95414.50;10375126;28;19925;-77
2021/11/19 12:21:37;;;;;;;;;;;;;;;8.10;79.28;95403.88;10360195;28;19914;-77
2021/11/19 12:26:57;;;;;;;;;;;;;;;8.16;78.53;95392.19;10359125;28;19918;-74
2021/11/19 12:32:06;;;;;;;;;;;;;;;7.76;80.26;95388.56;10375698;28;19917;-80
2021/11/19 12:37:13;;;;;;;;;;;;;;;7.68;83.88;95389.75;10359303;28;19914;-74
2021/11/19 12:42:19;;;;;;;;;;;;;;;7.13;84.67;95391.06;10358803;28;19917;-76
2021/11/19 12:47:29;;;;;;;;;;;;;;;6.58;88.22;95368.19;10375064;28;20524;-76
2021/11/19 12:52:48;;;;;;;;;;;;;;;6.19;96.68;95373.16;10358311;28;19972;-76
2021/11/19 12:57:51;;;;;;;;;;;;;;;6.55;96.99;95373.22;10359790;28;19957;-78
2021/11/19 13:03:10;;;;;;;;;;;;;;;6.63;96.03;95362.97;10374227;28;19918;-79
2021/11/19 13:08:30;;;;;;;;;;;;;;;6.77;94.92;95376.13;10390168;28;19917;-71
2021/11/19 13:13:32;;;;;;;;;;;;;;;6.29;95.70;95381.44;10374723;28;20310;-74
2021/11/19 13:18:43;;;;;;;;;;;;;;;6.40;97.17;95368.31;10358323;28;20388;-73
2021/11/19 13:23:45;;;;;;;;;;;;;;;6.43;96.46;95359.84;10384237;28;19921;-76
2021/11/19 13:28:46;;;;;;;;;;;;;;;6.39;98.00;95356.84;10418410;28;19913;-74
2021/11/19 13:34:08;;;;;;;;;;;;;;;6.42;98.92;95358.19;10422932;28;20334;-74
2021/11/19 13:39:17;;;;;;;;;;;;;;;6.50;97.38;95363.19;10422405;28;19917;-77
2021/11/19 13:44:36;;;;;;;;;;;;;;;6.57;97.42;95363.09;10422417;28;19928;-73
2021/11/19 13:49:46;;;;;;;;;;;;;;;6.47;96.26;95377.03;10422335;28;19916;-76
2021/11/19 13:54:47;;;;;;;;;;;;;;;6.58;97.63;95370.06;10404556;28;19929;-73
2021/11/19 13:59:49;;;;;;;;;;;;;;;6.72;95.59;95373.31;10402267;28;20314;-74
2021/11/19 14:04:52;;;;;;;;;;;;;;;6.67;95.86;95366.00;10402142;28;19921;-74
2021/11/19 14:10:15;;;;;;;;;;;;;;;6.63;97.00;95373.66;10421264;28;20511;-78
2021/11/19 14:15:19;;;;;;;;;;;;;;;6.66;95.45;95383.88;10402799;28;19913;-78
2021/11/19 14:25:43;;;;;;;;;;;;;;;6.44;100.00;95385.50;10404270;28;19924;-77
2021/11/19 14:30:44;;;;;;;;;;;;;;;6.43;99.21;95392.72;10420743;28;20055;-77
2021/11/19 14:35:51;;;;;;;;;;;;;;;6.37;98.75;95388.28;10418061;28;20404;-77
2021/11/19 14:41:08;;;;;;;;;;;;;;;6.19;100.00;95380.34;10410196;28;19913;-74
2021/11/19 14:46:14;;;;;;;;;;;;;;;5.85;100.00;95383.50;10404986;28;20416;-79
2021/11/19 14:51:33;;;;;;;;;;;;;;;5.82;100.00;95384.75;10419330;28;19913;-72
2021/11/19 14:56:37;;;;;;;;;;;;;;;5.62;100.00;95379.72;10419668;28;20014;-77
2021/11/19 15:02:07;;;;;;;;;;;;;;;5.53;100.00;95378.38;10419178;28;20509;-76
2021/11/19 15:07:10;;;;;;;;;;;;;;;5.24;100.00;95370.13;10397741;28;19940;-73
2021/11/19 15:12:11;;;;;;;;;;;;;;;5.03;100.00;95383.91;10402134;28;20014;-78
2021/11/19 15:17:17;;;;;;;;;;;;;;;5.09;100.00;95388.34;10400608;28;20027;-75
2021/11/19 15:22:20;;;;;;;;;;;;;;;4.88;100.00;95411.69;10418119;28;19967;-74
2021/11/19 15:27:24;;;;;;;;;;;;;;;4.83;100.00;95416.06;10414966;28;20374;-79
2021/11/19 15:32:28;;;;;;;;;;;;;;;4.73;100.00;95412.06;10386601;28;19917;-75
2021/11/19 15:37:32;;;;;;;;;;;;;;;4.87;100.00;95420.75;10417181;28;19942;-77
2021/11/19 15:42:32;;;;;;;;;;;;;;;4.79;100.00;95443.13;10415356;28;20025;-77
2021/11/19 15:47:33;;;;;;;;;;;;;;;4.80;100.00;95449.28;10416227;28;19921;-74
2021/11/19 15:52:38;;;;;;;;;;;;;;;4.58;100.00;95438.22;10400577;28;19913;-76
2021/11/19 15:57:51;;;;;;;;;;;;;;;4.49;100.00;95442.97;10398903;28;19933;-73
2021/11/19 16:02:57;;;;;;;;;;;;;;;4.47;100.00;95444.25;10415672;28;20751;-74
2021/11/19 16:08:19;;;;;;;;;;;;;;;4.43;100.00;95433.22;10416122;28;20421;-73
2021/11/19 16:13:28;;;;;;;;;;;;;;;4.38;100.00;95430.38;10415838;28;19913;-77
2021/11/19 16:18:33;;;;;;;;;;;;;;;4.33;100.00;95438.22;10408141;28;19921;-72
2021/11/19 16:23:34;;;;;;;;;;;;;;;4.25;100.00;95421.47;10397604;28;19917;-75
2021/11/19 16:28:35;;;;;;;;;;;;;;;4.40;100.00;95421.16;10394977;28;20386;-76
2021/11/19 16:33:36;;;;;;;;;;;;;;;4.41;100.00;95421.94;10395226;28;20070;-74
2021/11/19 16:38:37;;;;;;;;;;;;;;;4.30;100.00;95420.84;10399548;28;20019;-77
2021/11/19 16:43:39;;;;;;;;;;;;;;;4.40;100.00;95412.38;10393176;28;20037;-77
2021/11/19 16:48:40;;;;;;;;;;;;;;;4.41;100.00;95419.28;10411312;28;20383;-77
2021/11/19 16:53:40;;;;;;;;;;;;;;;4.38;100.00;95425.06;10412209;28;19928;-72
2021/11/19 16:58:42;;;;;;;;;;;;;;;4.46;100.00;95411.47;10414704;28;19913;-74
2021/11/19 17:03:42;;;;;;;;;;;;;;;4.63;100.00;95398.44;10418629;28;19921;-77
2021/11/19 17:08:43;;;;;;;;;;;;;;;4.71;100.00;95400.00;10406229;28;19970;-77
2021/11/19 17:13:43;;;;;;;;;;;;;;;4.81;100.00;95400.31;10403771;28;19913;-69
2021/11/19 17:18:44;;;;;;;;;;;;;;;4.87;100.00;95391.44;10405358;28;19920;-73
2021/11/19 17:23:45;;;;;;;;;;;;;;;4.83;100.00;95387.59;10392305;28;20032;-76
2021/11/19 17:28:48;;;;;;;;;;;;;;;5.02;100.00;95387.59;10405292;28;20398;-79
2021/11/19 17:33:49;;;;;;;;;;;;;;;5.15;100.00;95382.13;10404051;28;19960;-76
2021/11/19 17:38:50;;;;;;;;;;;;;;;5.12;100.00;95377.22;10419429;28;20024;-78
2021/11/19 17:43:51;;;;;;;;;;;;;;;5.32;100.00;95371.69;10405211;28;19918;-74
2021/11/19 17:48:51;;;;;;;;;;;;;;;5.21;100.00;95381.22;10404684;28;19914;-74
2021/11/19 17:53:53;;;;;;;;;;;;;;;5.47;100.00;95371.28;10421277;28;19933;-75
2021/11/19 17:58:53;;;;;;;;;;;;;;;5.47;100.00;95381.97;10420942;28;19948;-78
2021/11/19 18:03:53;;;;;;;;;;;;;;;5.60;100.00;95378.31;10421616;28;20004;-79
2021/11/19 18:08:54;;;;;;;;;;;;;;;5.64;100.00;95382.13;10398452;28;19913;-74
2021/11/19 18:13:56;;;;;;;;;;;;;;;5.67;100.00;95389.69;10408789;28;19917;-79
2021/11/19 18:18:56;;;;;;;;;;;;;;;5.70;100.00;95388.41;10421064;28;19917;-74
2021/11/19 18:23:57;;;;;;;;;;;;;;;5.81;100.00;95406.31;10413883;28;20378;-74
2021/11/19 18:29:00;;;;;;;;;;;;;;;5.56;100.00;95404.59;10391212;28;20345;-78
2021/11/19 18:34:03;;;;;;;;;;;;;;;5.70;100.00;95409.75;10383796;28;19932;-80
2021/11/19 18:39:06;;;;;;;;;;;;;;;5.48;100.00;95397.72;10397685;28;19917;-77
2021/11/19 18:44:07;;;;;;;;;;;;;;;5.34;100.00;95390.09;10401614;28;19917;-78
2021/11/19 18:49:08;;;;;;;;;;;;;;;5.26;100.00;95389.38;10392369;28;19921;-74
2021/11/19 18:54:08;;;;;;;;;;;;;;;5.24;100.00;95386.09;10387182;28;19992;-78
2021/11/19 18:59:08;;;;;;;;;;;;;;;5.39;100.00;95382.25;10408613;28;19917;-73
2021/11/19 19:04:09;;;;;;;;;;;;;;;5.52;100.00;95386.59;10398197;28;20035;-77
2021/11/19 19:09:11;;;;;;;;;;;;;;;5.68;100.00;95385.16;10391410;28;20101;-74
2021/11/19 19:14:16;;;;;;;;;;;;;;;5.87;100.00;95383.25;10362577;28;19917;-74
2021/11/19 19:19:17;;;;;;;;;;;;;;;5.77;100.00;95381.94;10362332;28;19997;-80
2021/11/19 19:24:17;;;;;;;;;;;;;;;5.87;100.00;95402.72;10377563;28;20004;-74
2021/11/19 19:29:18;;;;;;;;;;;;;;;5.87;100.00;95396.59;10388278;28;19917;-73
2021/11/19 19:34:24;;;;;;;;;;;;;;;5.63;100.00;95391.97;10402133;28;19913;-75
2021/11/19 19:39:30;;;;;;;;;;;;;;;5.48;100.00;95387.06;10417865;28;19913;-75
2021/11/19 19:44:31;;;;;;;;;;;;;;;5.47;100.00;95374.75;10416355;28;20389;-76
2021/11/19 19:49:31;;;;;;;;;;;;;;;5.48;100.00;95367.56;10399880;28;19919;-75
2021/11/19 19:54:37;;;;;;;;;;;;;;;5.54;100.00;95368.53;10401108;28;19925;-77
2021/11/19 19:59:38;;;;;;;;;;;;;;;5.67;100.00;95380.88;10400575;28;19924;-74
2021/11/19 20:04:39;;;;;;;;;;;;;;;5.72;100.00;95389.84;10399653;28;20469;-79
2021/11/19 20:09:41;;;;;;;;;;;;;;;5.72;100.00;95383.66;10399242;28;20011;-75
2021/11/19 20:14:44;;;;;;;;;;;;;;;5.96;100.00;95392.56;10413078;28;20289;-75
2021/11/19 20:19:45;;;;;;;;;;;;;;;5.89;100.00;95400.66;10416159;28;19913;-74
2021/11/19 20:24:46;;;;;;;;;;;;;;;5.86;100.00;95387.78;10413977;28;20379;-78
2021/11/19 20:29:49;;;;;;;;;;;;;;;5.98;100.00;95388.66;10384193;28;20000;-79
2021/11/19 20:34:51;;;;;;;;;;;;;;;6.16;100.00;95402.97;10400904;28;20037;-75
2021/11/19 20:39:56;;;;;;;;;;;;;;;6.32;100.00;95406.81;10400756;28;19918;-78
2021/11/19 20:44:57;;;;;;;;;;;;;;;6.42;100.00;95395.56;10403921;28;19976;-78
2021/11/19 20:49:58;;;;;;;;;;;;;;;6.57;100.00;95397.81;10370150;28;19928;-77
2021/11/19 20:54:59;;;;;;;;;;;;;;;6.65;100.00;95379.56;10386159;28;19921;-79
2021/11/19 21:00:03;;;;;;;;;;;;;;;6.66;100.00;95370.53;10412963;28;19925;-75
2021/11/19 21:05:07;;;;;;;;;;;;;;;6.78;100.00;95375.03;10397480;28;20322;-75
2021/11/19 21:10:09;;;;;;;;;;;;;;;6.72;100.00;95359.97;10414875;28;19928;-74
2021/11/19 21:15:17;;;;;;;;;;;;;;;6.79;100.00;95357.97;10398921;28;19913;-73
2021/11/19 21:20:19;;;;;;;;;;;;;;;6.79;100.00;95357.97;10398322;28;20000;-73
2021/11/19 21:25:40;;;;;;;;;;;;;;;6.77;100.00;95373.44;10394332;28;20017;-76
2021/11/19 21:30:43;;;;;;;;;;;;;;;6.78;100.00;95372.38;10399214;28;19921;-73
2021/11/19 21:35:45;;;;;;;;;;;;;;;6.82;100.00;95371.69;10381932;28;19927;-75
2021/11/19 21:40:47;;;;;;;;;;;;;;;6.82;100.00;95371.69;10414564;28;19943;-73
2021/11/19 21:45:48;;;;;;;;;;;;;;;6.75;100.00;95372.84;10415115;28;20047;-72
2021/11/19 21:50:58;;;;;;;;;;;;;;;6.76;100.00;95377.97;10419958;28;20302;-73
2021/11/19 21:56:20;;;;;;;;;;;;;;;6.66;100.00;95373.19;10406205;28;20355;-72
2021/11/19 22:01:23;;;;;;;;;;;;;;;6.42;100.00;95368.88;10422470;28;19921;-75
2021/11/19 22:06:25;;;;;;;;;;;;;;;6.50;100.00;95363.19;10407083;28;20004;-72
2021/11/19 22:11:26;;;;;;;;;;;;;;;6.64;100.00;95377.97;10422009;28;19917;-72
2021/11/19 22:16:27;;;;;;;;;;;;;;;6.79;100.00;95366.78;10405688;28;19913;-72
2021/11/19 22:21:32;;;;;;;;;;;;;;;6.76;100.00;95358.47;10421718;28;19919;-72
2021/11/19 22:26:33;;;;;;;;;;;;;;;6.81;100.00;95350.56;10420949;28;20580;-72
2021/11/19 22:31:36;;;;;;;;;;;;;;;6.43;100.00;95325.97;10421187;28;19917;-71
2021/11/19 22:36:37;;;;;;;;;;;;;;;6.37;100.00;95326.06;10421151;28;20403;-71
2021/11/19 22:41:39;;;;;;;;;;;;;;;6.49;100.00;95337.56;10404153;28;19925;-73
2021/11/19 22:46:40;;;;;;;;;;;;;;;6.52;100.00;95329.09;10405563;28;20012;-72
2021/11/19 22:51:42;;;;;;;;;;;;;;;6.55;100.00;95319.81;10420613;28;20383;-73
2021/11/19 22:56:48;;;;;;;;;;;;;;;6.60;100.00;95322.56;10420008;28;19921;-74
2021/11/19 23:01:51;;;;;;;;;;;;;;;6.64;100.00;95321.88;10418998;28;19928;-78
2021/11/19 23:06:52;;;;;;;;;;;;;;;6.56;100.00;95310.72;10404480;28;20365;-72
2021/11/19 23:11:53;;;;;;;;;;;;;;;6.60;100.00;95307.38;10403061;28;19913;-73
2021/11/19 23:17:02;;;;;;;;;;;;;;;6.39;100.00;95302.59;10403219;28;19925;-74
2021/11/19 23:22:13;;;;;;;;;;;;;;;6.58;100.00;95285.41;10404029;28;19970;-72
2021/11/19 23:27:14;;;;;;;;;;;;;;;6.59;100.00;95284.38;10419750;28;19913;-75
2021/11/19 23:32:20;;;;;;;;;;;;;;;6.58;100.00;95268.59;10419163;28;19913;-73
2021/11/19 23:37:20;;;;;;;;;;;;;;;6.50;100.00;95278.59;10403571;28;19913;-75
2021/11/19 23:42:24;;;;;;;;;;;;;;;6.60;100.00;95290.50;10418515;28;20299;-76
2021/11/19 23:47:25;;;;;;;;;;;;;;;6.60;100.00;95282.50;10418150;28;19917;-73
2021/11/19 23:52:27;;;;;;;;;;;;;;;6.60;100.00;95280.66;10418321;28;20413;-74
2021/11/19 23:57:28;;;;;;;;;;;;;;;6.49;100.00;95265.47;10418158;28;20014;-72
